createdAt,value
2017-04-29T00:00:20.574Z,0
2017-04-29T00:01:01.185Z,0
2017-04-29T00:01:41.867Z,0
2017-04-29T00:02:22.486Z,0
2017-04-29T00:03:03.158Z,0
2017-04-29T00:03:43.802Z,0
2017-04-29T00:04:24.466Z,0
2017-04-29T00:05:06.130Z,0
2017-04-29T00:05:46.773Z,0
2017-04-29T00:06:27.425Z,0
2017-04-29T00:07:08.080Z,0
2017-04-29T00:07:48.633Z,0
2017-04-29T00:08:29.234Z,0
2017-04-29T00:09:09.842Z,0
2017-04-29T00:09:50.492Z,0
2017-04-29T00:10:31.055Z,0
2017-04-29T00:11:11.629Z,0
2017-04-29T00:11:52.247Z,0
2017-04-29T00:12:32.905Z,0
2017-04-29T00:13:13.478Z,0
2017-04-29T00:13:54.099Z,0
2017-04-29T00:14:34.766Z,0
2017-04-29T00:15:15.331Z,0
2017-04-29T00:15:56.983Z,0
2017-04-29T00:16:37.636Z,0
2017-04-29T00:17:18.288Z,0
2017-04-29T00:17:58.938Z,0
2017-04-29T00:18:39.603Z,0
2017-04-29T00:19:20.244Z,0
2017-04-29T00:20:00.930Z,0
2017-04-29T00:20:41.563Z,0
2017-04-29T00:21:22.210Z,0
2017-04-29T00:22:02.885Z,0
2017-04-29T00:22:43.522Z,0
2017-04-29T00:23:24.162Z,0
2017-04-29T00:24:04.817Z,0
2017-04-29T00:24:45.472Z,0
2017-04-29T00:25:26.143Z,0
2017-04-29T00:26:06.788Z,0
2017-04-29T00:26:47.342Z,0
2017-04-29T00:27:27.928Z,0
2017-04-29T00:28:08.527Z,0
2017-04-29T00:28:49.176Z,0
2017-04-29T00:29:29.747Z,0
2017-04-29T00:30:11.371Z,0
2017-04-29T00:30:51.970Z,0
2017-04-29T00:31:32.611Z,0
2017-04-29T00:32:13.268Z,0
2017-04-29T00:32:54.946Z,0
2017-04-29T00:33:35.623Z,0
2017-04-29T00:34:17.273Z,0
2017-04-29T00:34:57.938Z,0
2017-04-29T00:35:38.979Z,0
2017-04-29T00:36:20.058Z,0
2017-04-29T00:37:00.637Z,0
2017-04-29T00:37:41.327Z,0
2017-04-29T00:38:22.005Z,0
2017-04-29T00:39:02.658Z,0
2017-04-29T00:39:43.260Z,0
2017-04-29T00:40:23.909Z,0
2017-04-29T00:41:04.528Z,0
2017-04-29T00:41:46.204Z,0
2017-04-29T00:42:26.840Z,0
2017-04-29T00:43:07.498Z,0
2017-04-29T00:43:48.152Z,0
2017-04-29T00:44:28.803Z,0
2017-04-29T00:45:09.461Z,0
2017-04-29T00:45:50.110Z,0
2017-04-29T00:46:30.760Z,0
2017-04-29T00:47:11.420Z,0
2017-04-29T00:47:53.090Z,0
2017-04-29T00:48:33.749Z,0
2017-04-29T00:49:14.400Z,0
2017-04-29T00:49:55.051Z,0
2017-04-29T00:50:35.711Z,0
2017-04-29T00:51:16.376Z,0
2017-04-29T00:51:56.943Z,0
2017-04-29T00:52:37.625Z,0
2017-04-29T00:53:18.218Z,0
2017-04-29T00:53:58.863Z,0
2017-04-29T00:54:39.461Z,0
2017-04-29T00:55:20.196Z,0
2017-04-29T00:56:00.827Z,0
2017-04-29T00:56:41.483Z,0
2017-04-29T00:57:22.071Z,0
2017-04-29T00:58:02.744Z,0
2017-04-29T00:58:43.441Z,0
2017-04-29T00:59:24.089Z,0
2017-04-29T01:00:04.684Z,0
2017-04-29T01:00:45.286Z,0
2017-04-29T01:01:25.946Z,0
2017-04-29T01:02:06.595Z,0
2017-04-29T01:02:47.159Z,0
2017-04-29T01:03:27.860Z,0
2017-04-29T01:04:09.497Z,0
2017-04-29T01:04:50.133Z,0
2017-04-29T01:05:30.719Z,0
2017-04-29T01:06:11.387Z,0
2017-04-29T01:06:52.069Z,0
2017-04-29T01:07:32.724Z,0
2017-04-29T01:08:13.396Z,0
2017-04-29T01:08:55.058Z,0
2017-04-29T01:09:36.735Z,0
2017-04-29T01:10:17.386Z,0
2017-04-29T01:10:58.131Z,0
2017-04-29T01:11:38.802Z,0
2017-04-29T01:12:19.364Z,0
2017-04-29T01:13:00.111Z,0
2017-04-29T01:13:41.778Z,0
2017-04-29T01:14:22.442Z,0
2017-04-29T01:15:02.998Z,0
2017-04-29T01:15:43.700Z,0
2017-04-29T01:16:24.257Z,0
2017-04-29T01:17:05.961Z,0
2017-04-29T01:17:46.539Z,0
2017-04-29T01:18:27.171Z,0
2017-04-29T01:19:08.843Z,0
2017-04-29T01:19:49.405Z,0
2017-04-29T01:20:31.106Z,0
2017-04-29T01:21:12.761Z,0
2017-04-29T01:21:53.323Z,0
2017-04-29T01:22:34.986Z,0
2017-04-29T01:23:15.638Z,0
2017-04-29T01:23:56.284Z,0
2017-04-29T01:24:36.957Z,0
2017-04-29T01:25:17.596Z,0
2017-04-29T01:25:58.245Z,0
2017-04-29T01:26:38.888Z,0
2017-04-29T01:27:19.543Z,0
2017-04-29T01:28:00.209Z,0
2017-04-29T01:28:41.881Z,0
2017-04-29T01:29:23.557Z,0
2017-04-29T01:30:04.214Z,0
2017-04-29T01:30:44.854Z,0
2017-04-29T01:31:25.510Z,0
2017-04-29T01:32:06.164Z,0
2017-04-29T01:32:47.853Z,0
2017-04-29T01:33:28.405Z,0
2017-04-29T01:34:09.057Z,0
2017-04-29T01:34:49.698Z,0
2017-04-29T01:35:30.267Z,0
2017-04-29T01:36:10.893Z,0
2017-04-29T01:36:51.558Z,0
2017-04-29T01:37:32.126Z,0
2017-04-29T01:38:12.804Z,0
2017-04-29T01:38:54.444Z,0
2017-04-29T01:39:34.995Z,0
2017-04-29T01:40:15.647Z,0
2017-04-29T01:40:56.295Z,0
2017-04-29T01:41:36.839Z,0
2017-04-29T01:42:17.504Z,0
2017-04-29T01:42:58.147Z,0
2017-04-29T01:43:38.699Z,0
2017-04-29T01:44:19.464Z,0
2017-04-29T01:45:00.105Z,0
2017-04-29T01:45:40.758Z,0
2017-04-29T01:46:21.345Z,0
2017-04-29T01:47:02.020Z,0
2017-04-29T01:47:42.815Z,0
2017-04-29T01:48:23.753Z,0
2017-04-29T01:49:05.460Z,0
2017-04-29T01:49:46.197Z,0
2017-04-29T01:50:26.863Z,0
2017-04-29T01:51:07.519Z,0
2017-04-29T01:51:48.888Z,0
2017-04-29T01:52:29.553Z,0
2017-04-29T01:53:10.196Z,0
2017-04-29T01:53:50.842Z,0
2017-04-29T01:54:31.504Z,0
2017-04-29T01:55:12.185Z,0
2017-04-29T01:55:52.819Z,0
2017-04-29T01:56:34.472Z,0
2017-04-29T01:57:15.141Z,0
2017-04-29T01:57:57.839Z,0
2017-04-29T01:58:39.518Z,0
2017-04-29T01:59:20.173Z,0
2017-04-29T02:00:00.815Z,0
2017-04-29T02:00:41.467Z,0
2017-04-29T02:01:22.130Z,0
2017-04-29T02:02:02.778Z,0
2017-04-29T02:02:43.483Z,0
2017-04-29T02:03:24.068Z,0
2017-04-29T02:04:04.730Z,0
2017-04-29T02:04:45.439Z,0
2017-04-29T02:05:26.095Z,0
2017-04-29T02:06:06.665Z,0
2017-04-29T02:06:47.351Z,0
2017-04-29T02:07:28.053Z,0
2017-04-29T02:08:08.659Z,0
2017-04-29T02:08:49.366Z,0
2017-04-29T02:09:30.105Z,0
2017-04-29T02:10:10.737Z,0
2017-04-29T02:10:51.434Z,0
2017-04-29T02:11:32.178Z,0
2017-04-29T02:12:12.751Z,0
2017-04-29T02:12:53.485Z,0
2017-04-29T02:13:34.228Z,0
2017-04-29T02:14:14.784Z,0
2017-04-29T02:14:55.543Z,0
2017-04-29T02:15:36.314Z,0
2017-04-29T02:16:16.897Z,0
2017-04-29T02:16:57.624Z,0
2017-04-29T02:17:38.362Z,0
2017-04-29T02:18:19.126Z,0
2017-04-29T02:18:59.865Z,0
2017-04-29T02:19:40.623Z,0
2017-04-29T02:20:21.374Z,0
2017-04-29T02:21:02.049Z,0
2017-04-29T02:21:42.784Z,0
2017-04-29T02:22:23.379Z,0
2017-04-29T02:23:04.041Z,0
2017-04-29T02:23:44.745Z,0
2017-04-29T02:24:25.289Z,0
2017-04-29T02:25:05.965Z,0
2017-04-29T02:25:46.708Z,0
2017-04-29T02:26:27.277Z,0
2017-04-29T02:27:07.983Z,0
2017-04-29T02:27:48.666Z,0
2017-04-29T02:28:29.254Z,0
2017-04-29T02:29:09.995Z,0
2017-04-29T02:29:50.729Z,0
2017-04-29T02:30:31.315Z,0
2017-04-29T02:31:12.102Z,0
2017-04-29T02:31:52.690Z,0
2017-04-29T02:32:33.259Z,0
2017-04-29T02:33:13.928Z,0
2017-04-29T02:33:54.631Z,0
2017-04-29T02:34:35.362Z,0
2017-04-29T02:35:15.940Z,0
2017-04-29T02:35:56.618Z,0
2017-04-29T02:36:37.320Z,0
2017-04-29T02:37:17.962Z,0
2017-04-29T02:37:58.539Z,0
2017-04-29T02:38:53.918Z,0
2017-04-29T02:39:34.648Z,0
2017-04-29T02:40:15.343Z,0
2017-04-29T02:40:55.976Z,0
2017-04-29T02:41:36.543Z,0
2017-04-29T02:42:17.442Z,0
2017-04-29T02:42:58.133Z,0
2017-04-29T02:43:38.827Z,0
2017-04-29T02:44:19.548Z,0
2017-04-29T02:45:00.199Z,0
2017-04-29T02:45:40.891Z,0
2017-04-29T02:46:21.499Z,0
2017-04-29T02:47:02.148Z,0
2017-04-29T02:47:43.858Z,0
2017-04-29T02:48:24.425Z,0
2017-04-29T02:49:05.102Z,0
2017-04-29T02:49:46.811Z,0
2017-04-29T02:50:27.428Z,0
2017-04-29T02:51:07.994Z,0
2017-04-29T02:51:48.648Z,0
2017-04-29T02:52:29.330Z,0
2017-04-29T02:53:09.988Z,0
2017-04-29T02:53:50.567Z,0
2017-04-29T02:54:31.226Z,0
2017-04-29T02:55:11.940Z,0
2017-04-29T02:55:52.650Z,0
2017-04-29T02:56:33.207Z,0
2017-04-29T02:57:13.837Z,0
2017-04-29T02:57:54.510Z,0
2017-04-29T02:58:35.199Z,0
2017-04-29T02:59:15.752Z,0
2017-04-29T02:59:56.413Z,0
2017-04-29T03:00:38.047Z,0
2017-04-29T03:01:18.696Z,0
2017-04-29T03:01:59.264Z,0
2017-04-29T03:02:39.849Z,0
2017-04-29T03:03:20.500Z,0
2017-04-29T03:04:01.153Z,0
2017-04-29T03:04:41.802Z,0
2017-04-29T03:05:22.454Z,0
2017-04-29T03:06:03.112Z,0
2017-04-29T03:06:43.751Z,0
2017-04-29T03:07:24.407Z,0
2017-04-29T03:08:05.065Z,0
2017-04-29T03:08:45.714Z,0
2017-04-29T03:09:26.272Z,0
2017-04-29T03:10:06.916Z,0
2017-04-29T03:10:47.561Z,0
2017-04-29T03:11:28.220Z,0
2017-04-29T03:12:08.874Z,0
2017-04-29T03:12:49.532Z,0
2017-04-29T03:13:30.185Z,0
2017-04-29T03:14:10.976Z,0
2017-04-29T03:14:51.592Z,0
2017-04-29T03:15:32.251Z,0
2017-04-29T03:16:12.905Z,0
2017-04-29T03:16:53.556Z,0
2017-04-29T03:17:34.230Z,0
2017-04-29T03:18:14.806Z,0
2017-04-29T03:18:55.458Z,0
2017-04-29T03:19:36.011Z,0
2017-04-29T03:20:16.617Z,0
2017-04-29T03:20:57.214Z,0
2017-04-29T03:21:37.873Z,0
2017-04-29T03:22:18.427Z,0
2017-04-29T03:22:59.016Z,0
2017-04-29T03:23:39.615Z,0
2017-04-29T03:24:20.273Z,0
2017-04-29T03:25:00.838Z,0
2017-04-29T03:25:41.478Z,0
2017-04-29T03:26:22.132Z,0
2017-04-29T03:27:02.709Z,0
2017-04-29T03:27:43.289Z,0
2017-04-29T03:28:23.937Z,0
2017-04-29T03:29:04.599Z,0
2017-04-29T03:29:45.240Z,0
2017-04-29T03:30:25.892Z,0
2017-04-29T03:31:06.549Z,0
2017-04-29T03:31:47.216Z,0
2017-04-29T03:32:27.852Z,0
2017-04-29T03:33:08.458Z,4
2017-04-29T03:33:49.104Z,4
2017-04-29T03:34:29.673Z,4
2017-04-29T03:35:10.245Z,4
2017-04-29T03:35:50.859Z,0
2017-04-29T03:36:31.510Z,0
2017-04-29T03:37:12.082Z,4
2017-04-29T03:37:52.667Z,4
2017-04-29T03:38:33.306Z,4
2017-04-29T03:39:13.984Z,4
2017-04-29T03:39:54.619Z,4
2017-04-29T03:40:35.269Z,4
2017-04-29T03:41:15.925Z,8
2017-04-29T03:41:56.582Z,8
2017-04-29T03:42:37.227Z,4
2017-04-29T03:43:17.843Z,8
2017-04-29T03:43:58.504Z,8
2017-04-29T03:44:39.069Z,8
2017-04-29T03:45:19.743Z,8
2017-04-29T03:46:00.343Z,12
2017-04-29T03:46:41.003Z,12
2017-04-29T03:47:21.576Z,12
2017-04-29T03:48:02.153Z,12
2017-04-29T03:48:42.743Z,16
2017-04-29T03:49:23.413Z,16
2017-04-29T03:50:03.976Z,16
2017-04-29T03:50:44.608Z,16
2017-04-29T03:51:25.280Z,20
2017-04-29T03:52:05.913Z,20
2017-04-29T03:52:46.499Z,20
2017-04-29T03:53:27.167Z,24
2017-04-29T03:54:07.793Z,28
2017-04-29T03:54:49.455Z,28
2017-04-29T03:55:30.021Z,32
2017-04-29T03:56:11.321Z,36
2017-04-29T03:56:51.922Z,40
2017-04-29T03:57:32.592Z,40
2017-04-29T03:58:13.250Z,44
2017-04-29T03:58:53.910Z,48
2017-04-29T03:59:34.530Z,52
2017-04-29T04:00:15.189Z,52
2017-04-29T04:00:55.868Z,60
2017-04-29T04:01:36.489Z,64
2017-04-29T04:02:17.143Z,68
2017-04-29T04:02:58.715Z,76
2017-04-29T04:03:39.378Z,80
2017-04-29T04:04:20.025Z,84
2017-04-29T04:05:00.680Z,92
2017-04-29T04:05:41.329Z,96
2017-04-29T04:06:21.983Z,100
2017-04-29T04:07:02.640Z,108
2017-04-29T04:07:43.289Z,112
2017-04-29T04:08:23.940Z,120
2017-04-29T04:09:05.621Z,128
2017-04-29T04:09:46.270Z,136
2017-04-29T04:10:26.924Z,144
2017-04-29T04:11:07.583Z,152
2017-04-29T04:11:48.230Z,164
2017-04-29T04:12:28.783Z,168
2017-04-29T04:13:09.433Z,176
2017-04-29T04:13:50.085Z,188
2017-04-29T04:14:30.659Z,196
2017-04-29T04:15:11.292Z,204
2017-04-29T04:15:51.935Z,220
2017-04-29T04:16:32.495Z,236
2017-04-29T04:17:13.130Z,248
2017-04-29T04:17:53.804Z,264
2017-04-29T04:18:34.354Z,276
2017-04-29T04:19:14.995Z,292
2017-04-29T04:19:55.661Z,304
2017-04-29T04:20:36.213Z,320
2017-04-29T04:21:16.864Z,336
2017-04-29T04:21:57.508Z,352
2017-04-29T04:22:38.069Z,364
2017-04-29T04:23:18.709Z,384
2017-04-29T04:23:59.361Z,396
2017-04-29T04:24:39.925Z,404
2017-04-29T04:25:20.536Z,416
2017-04-29T04:26:01.208Z,424
2017-04-29T04:26:41.871Z,428
2017-04-29T04:27:22.436Z,440
2017-04-29T04:28:03.050Z,452
2017-04-29T04:28:43.742Z,464
2017-04-29T04:29:24.387Z,480
2017-04-29T04:30:04.946Z,496
2017-04-29T04:30:46.555Z,512
2017-04-29T04:31:27.146Z,524
2017-04-29T04:32:07.806Z,532
2017-04-29T04:32:48.370Z,548
2017-04-29T04:33:28.963Z,564
2017-04-29T04:34:09.573Z,588
2017-04-29T04:34:50.213Z,612
2017-04-29T04:35:30.790Z,640
2017-04-29T04:36:11.369Z,652
2017-04-29T04:36:51.978Z,664
2017-04-29T04:37:32.629Z,672
2017-04-29T04:38:13.193Z,680
2017-04-29T04:38:53.782Z,696
2017-04-29T04:39:34.482Z,716
2017-04-29T04:40:15.139Z,736
2017-04-29T04:40:55.706Z,756
2017-04-29T04:41:36.285Z,776
2017-04-29T04:42:16.857Z,792
2017-04-29T04:42:57.435Z,808
2017-04-29T04:43:38.003Z,824
2017-04-29T04:44:18.624Z,848
2017-04-29T04:44:59.299Z,876
2017-04-29T04:45:39.946Z,916
2017-04-29T04:46:20.515Z,952
2017-04-29T04:47:01.088Z,996
2017-04-29T04:47:41.719Z,1020
2017-04-29T04:48:22.354Z,1048
2017-04-29T04:49:02.923Z,1060
2017-04-29T04:49:43.524Z,1076
2017-04-29T04:50:24.135Z,1092
2017-04-29T04:51:04.758Z,1112
2017-04-29T04:51:45.312Z,1140
2017-04-29T04:52:25.916Z,1164
2017-04-29T04:53:06.515Z,1196
2017-04-29T04:53:47.171Z,1220
2017-04-29T04:54:27.824Z,1236
2017-04-29T04:55:08.469Z,1252
2017-04-29T04:55:49.130Z,1276
2017-04-29T04:56:29.798Z,1316
2017-04-29T04:57:10.432Z,1360
2017-04-29T04:57:51.011Z,1396
2017-04-29T04:58:31.698Z,1428
2017-04-29T04:59:12.290Z,1448
2017-04-29T04:59:52.937Z,1452
2017-04-29T05:00:33.495Z,1448
2017-04-29T05:01:14.082Z,1432
2017-04-29T05:01:54.750Z,1412
2017-04-29T05:02:36.370Z,1400
2017-04-29T05:03:17.020Z,1392
2017-04-29T05:03:57.672Z,1400
2017-04-29T05:04:38.349Z,1396
2017-04-29T05:05:19.001Z,1400
2017-04-29T05:06:00.668Z,1412
2017-04-29T05:06:41.310Z,1432
2017-04-29T05:07:21.976Z,1456
2017-04-29T05:08:02.619Z,1484
2017-04-29T05:08:43.265Z,1512
2017-04-29T05:09:23.952Z,1540
2017-04-29T05:10:04.586Z,1568
2017-04-29T05:10:45.226Z,1588
2017-04-29T05:11:25.876Z,1600
2017-04-29T05:12:06.532Z,1608
2017-04-29T05:12:47.129Z,1608
2017-04-29T05:13:27.699Z,1612
2017-04-29T05:14:08.285Z,1620
2017-04-29T05:14:49.858Z,1640
2017-04-29T05:15:30.430Z,1660
2017-04-29T05:16:11.118Z,1672
2017-04-29T05:16:51.734Z,1688
2017-04-29T05:17:32.374Z,1700
2017-04-29T05:18:13.023Z,1716
2017-04-29T05:18:53.679Z,1736
2017-04-29T05:19:34.329Z,1752
2017-04-29T05:20:14.984Z,1780
2017-04-29T05:20:55.634Z,1808
2017-04-29T05:21:36.299Z,1844
2017-04-29T05:22:16.949Z,1884
2017-04-29T05:22:57.604Z,1928
2017-04-29T05:23:38.253Z,1976
2017-04-29T05:24:18.895Z,2020
2017-04-29T05:24:59.543Z,2056
2017-04-29T05:25:40.133Z,2104
2017-04-29T05:26:20.744Z,2144
2017-04-29T05:27:01.497Z,2192
2017-04-29T05:27:42.152Z,2260
2017-04-29T05:28:22.912Z,2340
2017-04-29T05:29:03.485Z,2428
2017-04-29T05:29:44.166Z,2508
2017-04-29T05:30:24.865Z,2572
2017-04-29T05:31:05.623Z,2608
2017-04-29T05:31:46.180Z,2628
2017-04-29T05:32:26.877Z,2628
2017-04-29T05:33:07.580Z,2636
2017-04-29T05:33:48.340Z,2640
2017-04-29T05:34:29.086Z,2652
2017-04-29T05:35:09.848Z,2700
2017-04-29T05:35:50.596Z,2688
2017-04-29T05:36:31.349Z,2708
2017-04-29T05:37:12.118Z,2700
2017-04-29T05:37:52.828Z,2696
2017-04-29T05:38:33.479Z,2684
2017-04-29T05:39:14.180Z,2672
2017-04-29T05:39:54.937Z,2676
2017-04-29T05:40:35.690Z,2692
2017-04-29T05:41:16.446Z,2716
2017-04-29T05:41:57.202Z,2748
2017-04-29T05:42:37.954Z,2784
2017-04-29T05:43:18.722Z,2828
2017-04-29T05:43:59.467Z,2892
2017-04-29T05:44:40.223Z,2968
2017-04-29T05:45:20.982Z,3044
2017-04-29T05:46:01.848Z,3136
2017-04-29T05:46:42.591Z,3212
2017-04-29T05:47:23.353Z,3300
2017-04-29T05:48:03.934Z,3376
2017-04-29T05:48:44.706Z,3448
2017-04-29T05:49:25.405Z,3508
2017-04-29T05:50:06.160Z,3552
2017-04-29T05:50:46.721Z,3592
2017-04-29T05:51:27.453Z,3620
2017-04-29T05:52:08.235Z,3656
2017-04-29T05:52:49.007Z,3692
2017-04-29T05:53:29.582Z,3736
2017-04-29T05:54:10.343Z,3796
2017-04-29T05:54:51.071Z,3872
2017-04-29T05:55:31.796Z,3960
2017-04-29T05:56:12.357Z,4044
2017-04-29T05:56:53.074Z,4120
2017-04-29T05:57:33.772Z,4184
2017-04-29T05:58:14.510Z,4240
2017-04-29T05:58:55.268Z,4264
2017-04-29T05:59:36.027Z,4244
2017-04-29T06:00:16.781Z,4204
2017-04-29T06:00:57.529Z,4192
2017-04-29T06:01:38.313Z,4204
2017-04-29T06:02:19.040Z,4248
2017-04-29T06:02:59.614Z,4320
2017-04-29T06:03:40.352Z,4404
2017-04-29T06:04:21.111Z,4492
2017-04-29T06:05:01.679Z,4588
2017-04-29T06:05:42.409Z,4720
2017-04-29T06:06:23.168Z,4872
2017-04-29T06:07:03.740Z,5040
2017-04-29T06:07:44.481Z,5188
2017-04-29T06:08:25.229Z,5320
2017-04-29T06:09:05.799Z,5472
2017-04-29T06:09:46.508Z,5620
2017-04-29T06:10:27.292Z,5780
2017-04-29T06:11:08.044Z,5896
2017-04-29T06:11:48.608Z,5944
2017-04-29T06:12:29.317Z,5916
2017-04-29T06:13:10.007Z,5868
2017-04-29T06:13:50.783Z,5804
2017-04-29T06:14:31.352Z,5736
2017-04-29T06:15:12.133Z,5680
2017-04-29T06:15:52.920Z,5608
2017-04-29T06:16:33.495Z,5528
2017-04-29T06:17:14.121Z,5440
2017-04-29T06:17:54.893Z,5344
2017-04-29T06:18:35.465Z,5288
2017-04-29T06:19:16.251Z,5228
2017-04-29T06:19:56.844Z,5184
2017-04-29T06:20:37.488Z,5160
2017-04-29T06:21:18.079Z,5136
2017-04-29T06:21:59.774Z,5112
2017-04-29T06:22:41.402Z,5104
2017-04-29T06:23:22.050Z,5112
2017-04-29T06:24:02.623Z,5164
2017-04-29T06:24:43.243Z,5220
2017-04-29T06:25:23.972Z,5280
2017-04-29T06:26:04.521Z,5328
2017-04-29T06:26:45.175Z,5336
2017-04-29T06:27:25.831Z,5376
2017-04-29T06:28:06.405Z,5412
2017-04-29T06:28:47.088Z,5448
2017-04-29T06:29:27.775Z,5488
2017-04-29T06:30:08.951Z,5524
2017-04-29T06:30:49.560Z,5564
2017-04-29T06:31:30.199Z,5584
2017-04-29T06:32:10.763Z,5652
2017-04-29T06:32:51.434Z,5748
2017-04-29T06:33:32.103Z,5868
2017-04-29T06:34:12.754Z,5984
2017-04-29T06:34:53.410Z,6092
2017-04-29T06:35:34.060Z,6172
2017-04-29T06:36:14.716Z,6200
2017-04-29T06:36:55.365Z,6196
2017-04-29T06:37:36.020Z,6164
2017-04-29T06:38:17.183Z,6112
2017-04-29T06:38:57.839Z,6056
2017-04-29T06:39:38.492Z,6036
2017-04-29T06:40:19.160Z,6052
2017-04-29T06:40:59.800Z,6144
2017-04-29T06:41:40.450Z,6268
2017-04-29T06:42:21.117Z,6412
2017-04-29T06:43:01.707Z,6572
2017-04-29T06:43:42.363Z,6748
2017-04-29T06:44:23.069Z,6972
2017-04-29T06:45:03.820Z,7184
2017-04-29T06:45:44.380Z,7372
2017-04-29T06:46:25.092Z,7540
2017-04-29T06:47:05.783Z,7668
2017-04-29T06:47:46.436Z,7744
2017-04-29T06:48:27.079Z,7760
2017-04-29T06:49:07.846Z,7744
2017-04-29T06:49:48.603Z,7720
2017-04-29T06:50:29.255Z,7684
2017-04-29T06:51:09.907Z,7596
2017-04-29T06:51:50.652Z,7540
2017-04-29T06:52:31.311Z,7512
2017-04-29T06:53:11.875Z,7512
2017-04-29T06:53:52.582Z,7536
2017-04-29T06:54:33.266Z,7492
2017-04-29T06:55:14.018Z,7536
2017-04-29T06:55:54.586Z,7624
2017-04-29T06:56:35.303Z,7756
2017-04-29T06:57:15.976Z,7928
2017-04-29T06:57:56.731Z,8032
2017-04-29T06:58:37.295Z,8064
2017-04-29T06:59:17.992Z,8056
2017-04-29T06:59:58.698Z,8048
2017-04-29T07:00:39.343Z,8016
2017-04-29T07:01:21.811Z,7972
2017-04-29T07:02:02.435Z,8020
2017-04-29T07:02:43.188Z,8156
2017-04-29T07:03:23.942Z,8524
2017-04-29T07:04:04.700Z,8876
2017-04-29T07:04:45.458Z,9032
2017-04-29T07:05:26.136Z,9104
2017-04-29T07:06:07.108Z,9012
2017-04-29T07:06:47.722Z,9028
2017-04-29T07:07:28.299Z,9440
2017-04-29T07:08:08.924Z,9252
2017-04-29T07:08:49.896Z,9028
2017-04-29T07:09:30.538Z,9052
2017-04-29T07:10:11.236Z,9052
2017-04-29T07:10:51.846Z,8968
2017-04-29T07:11:32.508Z,8700
2017-04-29T07:12:13.150Z,8564
2017-04-29T07:12:53.726Z,8760
2017-04-29T07:13:34.417Z,8768
2017-04-29T07:14:15.027Z,8720
2017-04-29T07:14:55.660Z,8808
2017-04-29T07:15:36.215Z,8908
2017-04-29T07:16:16.812Z,9036
2017-04-29T07:16:57.417Z,8932
2017-04-29T07:17:38.067Z,8736
2017-04-29T07:18:18.724Z,9024
2017-04-29T07:18:59.373Z,9248
2017-04-29T07:19:40.064Z,9248
2017-04-29T07:20:20.710Z,9164
2017-04-29T07:21:01.376Z,8836
2017-04-29T07:21:41.990Z,8836
2017-04-29T07:22:22.645Z,8528
2017-04-29T07:23:03.213Z,8692
2017-04-29T07:23:43.881Z,8832
2017-04-29T07:24:24.444Z,8812
2017-04-29T07:25:05.128Z,8952
2017-04-29T07:25:45.694Z,9172
2017-04-29T07:26:26.394Z,9328
2017-04-29T07:27:07.088Z,9384
2017-04-29T07:27:47.841Z,9440
2017-04-29T07:28:28.425Z,9504
2017-04-29T07:29:09.196Z,9480
2017-04-29T07:29:49.906Z,9592
2017-04-29T07:30:30.661Z,9908
2017-04-29T07:31:11.258Z,9736
2017-04-29T07:31:52.048Z,9752
2017-04-29T07:32:32.824Z,9648
2017-04-29T07:33:13.541Z,9428
2017-04-29T07:33:54.193Z,9340
2017-04-29T07:34:34.961Z,8960
2017-04-29T07:35:15.706Z,8940
2017-04-29T07:35:56.271Z,9136
2017-04-29T07:36:36.919Z,8768
2017-04-29T07:37:17.526Z,8564
2017-04-29T07:37:59.126Z,8584
2017-04-29T07:38:40.723Z,8712
2017-04-29T07:39:21.375Z,8740
2017-04-29T07:40:01.933Z,9356
2017-04-29T07:40:42.521Z,9192
2017-04-29T07:41:23.374Z,9188
2017-04-29T07:42:05.199Z,9188
2017-04-29T07:42:45.418Z,9300
2017-04-29T07:43:27.035Z,8968
2017-04-29T07:44:07.668Z,9020
2017-04-29T07:44:48.258Z,9640
2017-04-29T07:45:36.339Z,9516
2017-04-29T07:46:17.816Z,9316
2017-04-29T07:47:01.112Z,9224
2017-04-29T07:47:42.743Z,9240
2017-04-29T07:48:23.363Z,9024
2017-04-29T07:49:04.030Z,9172
2017-04-29T07:49:44.682Z,8588
2017-04-29T07:50:25.328Z,8852
2017-04-29T07:51:05.988Z,8552
2017-04-29T07:51:46.663Z,8840
2017-04-29T07:52:27.329Z,8840
2017-04-29T07:53:07.914Z,8960
2017-04-29T07:53:48.522Z,9040
2017-04-29T07:54:29.143Z,9220
2017-04-29T07:55:09.748Z,9784
2017-04-29T07:55:50.404Z,9592
2017-04-29T07:56:31.006Z,9008
2017-04-29T07:57:11.566Z,9080
2017-04-29T07:57:52.206Z,9744
2017-04-29T07:58:32.855Z,9584
2017-04-29T07:59:13.451Z,8876
2017-04-29T07:59:55.097Z,9344
2017-04-29T08:00:35.745Z,9448
2017-04-29T08:01:16.318Z,9316
2017-04-29T08:01:57.022Z,9248
2017-04-29T08:02:37.725Z,9756
2017-04-29T08:03:18.425Z,9092
2017-04-29T08:03:59.109Z,8740
2017-04-29T08:04:39.759Z,7808
2017-04-29T08:05:20.416Z,7496
2017-04-29T08:06:01.061Z,6812
2017-04-29T08:06:41.722Z,6316
2017-04-29T08:07:22.289Z,6196
2017-04-29T08:08:02.926Z,5956
2017-04-29T08:08:43.582Z,5932
2017-04-29T08:09:24.332Z,5944
2017-04-29T08:10:04.981Z,5992
2017-04-29T08:10:45.647Z,5952
2017-04-29T08:11:26.291Z,6020
2017-04-29T08:12:06.942Z,5784
2017-04-29T08:12:47.598Z,5828
2017-04-29T08:13:28.255Z,6740
2017-04-29T08:14:08.916Z,6896
2017-04-29T08:14:49.570Z,6956
2017-04-29T08:15:30.207Z,6560
2017-04-29T08:16:10.874Z,6768
2017-04-29T08:16:51.518Z,7388
2017-04-29T08:17:32.174Z,8024
2017-04-29T08:18:12.827Z,8180
2017-04-29T08:18:53.486Z,7684
2017-04-29T08:19:34.142Z,7764
2017-04-29T08:20:14.781Z,8504
2017-04-29T08:20:55.440Z,8808
2017-04-29T08:21:36.107Z,8284
2017-04-29T08:22:16.738Z,8648
2017-04-29T08:22:57.404Z,8784
2017-04-29T08:23:38.068Z,8480
2017-04-29T08:24:18.696Z,8332
2017-04-29T08:24:59.349Z,9132
2017-04-29T08:25:40.028Z,8804
2017-04-29T08:26:20.653Z,8900
2017-04-29T08:27:01.309Z,9120
2017-04-29T08:27:41.960Z,8336
2017-04-29T08:28:22.532Z,8196
2017-04-29T08:29:03.123Z,8060
2017-04-29T08:29:43.713Z,7960
2017-04-29T08:30:24.371Z,7916
2017-04-29T08:31:04.955Z,7920
2017-04-29T08:31:45.635Z,7900
2017-04-29T08:32:26.223Z,8172
2017-04-29T08:33:06.790Z,8224
2017-04-29T08:33:47.432Z,8344
2017-04-29T08:34:28.078Z,8580
2017-04-29T08:35:08.745Z,9272
2017-04-29T08:35:49.379Z,9280
2017-04-29T08:36:30.084Z,9200
2017-04-29T08:37:10.690Z,8132
2017-04-29T08:37:51.341Z,7708
2017-04-29T08:38:31.891Z,7308
2017-04-29T08:39:12.495Z,6952
2017-04-29T08:39:53.097Z,6532
2017-04-29T08:40:33.671Z,6112
2017-04-29T08:41:15.253Z,5756
2017-04-29T08:41:55.821Z,5444
2017-04-29T08:42:36.453Z,5260
2017-04-29T08:43:16.994Z,5096
2017-04-29T08:43:58.599Z,4984
2017-04-29T08:44:39.278Z,4936
2017-04-29T08:45:19.912Z,4980
2017-04-29T08:46:00.556Z,5088
2017-04-29T08:46:41.262Z,5248
2017-04-29T08:47:21.910Z,5276
2017-04-29T08:48:02.529Z,5380
2017-04-29T08:48:43.120Z,5496
2017-04-29T08:49:23.774Z,5612
2017-04-29T08:50:04.369Z,5724
2017-04-29T08:50:45.082Z,5820
2017-04-29T08:51:25.731Z,5884
2017-04-29T08:52:06.310Z,5884
2017-04-29T08:52:46.912Z,5828
2017-04-29T08:53:27.594Z,5760
2017-04-29T08:54:08.245Z,5680
2017-04-29T08:54:48.919Z,5652
2017-04-29T08:55:29.501Z,5696
2017-04-29T08:56:10.107Z,5788
2017-04-29T08:56:51.777Z,5928
2017-04-29T08:57:32.361Z,6900
2017-04-29T08:58:13.031Z,7236
2017-04-29T08:58:54.676Z,7344
2017-04-29T08:59:35.321Z,7500
2017-04-29T09:00:17.029Z,7836
2017-04-29T09:00:57.635Z,8264
2017-04-29T09:01:38.415Z,8716
2017-04-29T09:02:19.062Z,9180
2017-04-29T09:02:59.702Z,9584
2017-04-29T09:03:40.315Z,9924
2017-04-29T09:04:20.982Z,10368
2017-04-29T09:05:01.560Z,10684
2017-04-29T09:05:42.232Z,10932
2017-04-29T09:06:22.784Z,10828
2017-04-29T09:07:03.367Z,9932
2017-04-29T09:07:43.982Z,9216
2017-04-29T09:08:24.622Z,8884
2017-04-29T09:09:05.189Z,8600
2017-04-29T09:09:45.861Z,8412
2017-04-29T09:10:26.496Z,8224
2017-04-29T09:11:07.130Z,7984
2017-04-29T09:11:47.690Z,7896
2017-04-29T09:12:28.284Z,7772
2017-04-29T09:13:09.925Z,7868
2017-04-29T09:13:50.563Z,7996
2017-04-29T09:14:31.201Z,8140
2017-04-29T09:15:11.810Z,9084
2017-04-29T09:15:52.464Z,9160
2017-04-29T09:16:33.070Z,8936
2017-04-29T09:17:13.630Z,9188
2017-04-29T09:17:54.288Z,9748
2017-04-29T09:18:34.839Z,9992
2017-04-29T09:19:15.536Z,10276
2017-04-29T09:19:56.234Z,10500
2017-04-29T09:20:36.901Z,10540
2017-04-29T09:21:17.446Z,9904
2017-04-29T09:21:58.110Z,9968
2017-04-29T09:22:38.755Z,10588
2017-04-29T09:23:19.397Z,9776
2017-04-29T09:24:00.149Z,9780
2017-04-29T09:24:40.826Z,9964
2017-04-29T09:25:21.459Z,10260
2017-04-29T09:26:02.111Z,10128
2017-04-29T09:26:42.861Z,10156
2017-04-29T09:27:23.516Z,10188